Time;durP1;ratioP1;P1;durP2;ratioP2;P2;SDS_P1;SDS_P2;PMS_P1;PMS_P2;Temp;Humidity;BMP_temperature;BMP_pressure;BME280_temperature;BME280_humidity;BME280_pressure;Samples;Min_cycle;Max_cycle;Signal;HPM_P1;HPM_P2
2021/10/02 00:02:19;;;;;;;87.57;37.30;;;;;;;8.31;100.00;99658.75;2041977;29;20198;-73
2021/10/02 00:31:32;;;;;;;70.97;36.55;;;;;;;7.97;100.00;99623.13;2042113;29;20174;-73
2021/10/02 00:35:22;;;;;;;96.20;37.97;;;;;;;7.82;100.00;99626.59;2042015;29;20218;-73
2021/10/02 00:36:49;;;;;;;73.78;37.72;;;;;;;7.79;100.00;99622.56;2042082;29;20175;-74
2021/10/02 00:41:11;;;;;;;129.68;39.83;;;;;;;7.79;100.00;99622.56;2022250;29;20196;-73
2021/10/02 00:44:57;;;;;;;131.48;39.45;;;;;;;7.88;100.00;99614.88;2041771;29;20195;-73
2021/10/02 00:46:03;;;;;;;155.32;38.85;;;;;;;7.88;100.00;99615.69;2041701;29;20254;-73
2021/10/02 00:47:09;;;;;;;133.10;39.25;;;;;;;7.86;100.00;99619.66;2041821;29;20198;-73
2021/10/02 00:48:13;;;;;;;97.38;39.10;;;;;;;7.87;100.00;99615.94;2041128;29;20207;-73
2021/10/02 00:49:18;;;;;;;77.30;38.90;;;;;;;7.83;100.00;99613.03;2040566;29;20207;-73
2021/10/02 00:50:22;;;;;;;135.40;39.53;;;;;;;7.82;100.00;99616.75;2042104;29;20693;-73
2021/10/02 00:51:26;;;;;;;164.38;40.97;;;;;;;7.81;100.00;99617.78;2041475;29;20207;-73
2021/10/02 00:52:30;;;;;;;117.28;40.22;;;;;;;7.78;100.00;99618.31;2041766;29;20198;-74
2021/10/02 00:53:35;;;;;;;112.22;39.63;;;;;;;7.81;100.00;99620.44;2041814;29;20668;-73
2021/10/02 00:54:38;;;;;;;93.63;40.47;;;;;;;7.79;100.00;99603.19;2041349;29;20297;-73
2021/10/02 00:55:42;;;;;;;120.97;41.50;;;;;;;7.81;100.00;99609.81;2033927;29;20196;-73
2021/10/02 00:56:44;;;;;;;108.63;41.20;;;;;;;7.82;100.00;99608.78;2041156;29;20650;-74
2021/10/02 00:57:51;;;;;;;91.10;41.03;;;;;;;7.83;100.00;99613.03;2041789;29;20556;-73
2021/10/02 00:59:01;;;;;;;155.80;44.75;;;;;;;7.89;100.00;99608.50;2040981;29;20214;-74
2021/10/02 01:00:04;;;;;;;136.77;43.22;;;;;;;7.88;100.00;99607.72;2041265;29;20254;-74
2021/10/02 01:01:08;;;;;;;179.88;44.92;;;;;;;7.85;100.00;99608.25;2041729;29;20198;-73
2021/10/02 01:02:14;;;;;;;118.72;44.47;;;;;;;7.84;100.00;99613.84;2041108;29;20207;-74
2021/10/02 01:03:29;;;;;;;125.97;42.60;;;;;;;7.81;100.00;99609.03;2034239;29;20199;-73
2021/10/02 01:04:42;;;;;;;120.70;41.35;;;;;;;7.86;100.00;99617.00;2035152;29;20291;-73
2021/10/02 01:06:03;;;;;;;94.13;40.22;;;;;;;7.85;100.00;99610.91;2041495;29;20275;-73
2021/10/02 01:07:10;;;;;;;88.80;39.10;;;;;;;7.85;100.00;99610.91;2042952;29;20241;-73
2021/10/02 01:08:20;;;;;;;88.25;39.88;;;;;;;7.82;100.00;99606.13;2043352;29;20558;-73
2021/10/02 01:09:36;;;;;;;81.78;40.45;;;;;;;7.78;100.00;99601.59;2042788;29;20210;-73
2021/10/02 01:10:45;;;;;;;115.30;40.55;;;;;;;7.77;100.00;99608.78;2042851;29;20226;-73
2021/10/02 01:11:54;;;;;;;98.70;41.63;;;;;;;7.74;100.00;99608.50;2042880;29;20705;-73
2021/10/02 01:13:05;;;;;;;88.68;41.15;;;;;;;7.69;100.00;99611.94;2042829;29;20256;-73
2021/10/02 01:14:21;;;;;;;113.28;40.83;;;;;;;7.68;100.00;99593.63;2042833;29;20175;-73
2021/10/02 01:15:30;;;;;;;102.82;40.85;;;;;;;7.71;100.00;99601.84;2042841;29;20203;-73
2021/10/02 01:16:37;;;;;;;96.43;39.72;;;;;;;7.70;100.00;99607.44;2042588;29;20556;-73
2021/10/02 01:17:44;;;;;;;113.57;42.25;;;;;;;7.64;100.00;99602.13;2042426;29;20198;-73
2021/10/02 01:18:53;;;;;;;104.82;42.28;;;;;;;7.63;100.00;99597.84;2042773;29;20206;-73
2021/10/02 01:20:00;;;;;;;99.00;40.72;;;;;;;7.64;100.00;99601.28;2043243;29;20195;-74
2021/10/02 01:21:13;;;;;;;116.40;41.22;;;;;;;7.62;100.00;99595.47;2043144;29;20205;-73
2021/10/02 01:22:31;;;;;;;157.30;41.33;;;;;;;7.60;100.00;99597.59;2043068;29;20603;-73
2021/10/02 01:24:00;;;;;;;75.70;38.53;;;;;;;7.59;100.00;99596.00;2043120;29;20241;-73
2021/10/02 01:25:08;;;;;;;89.45;39.33;;;;;;;7.61;100.00;99602.63;2043103;29;20696;-73
2021/10/02 01:26:34;;;;;;;82.10;37.63;;;;;;;7.60;100.00;99594.94;2042479;29;20191;-73
2021/10/02 01:27:49;;;;;;;92.40;34.95;;;;;;;7.62;100.00;99595.47;2034566;29;20227;-73
2021/10/02 01:28:56;;;;;;;75.60;36.85;;;;;;;7.56;100.00;99597.31;2042686;29;20171;-73
2021/10/02 01:30:01;;;;;;;69.47;36.78;;;;;;;7.58;100.00;99595.19;2043073;29;20675;-73
2021/10/02 01:31:10;;;;;;;79.32;37.65;;;;;;;7.58;100.00;99589.88;2042289;29;20282;-73
2021/10/02 01:32:16;;;;;;;115.97;37.95;;;;;;;7.64;100.00;99593.31;2042361;29;20231;-73
2021/10/02 01:33:31;;;;;;;82.63;36.80;;;;;;;7.61;100.00;99599.97;2041742;29;20274;-74
2021/10/02 01:34:38;;;;;;;134.10;38.53;;;;;;;7.64;100.00;99598.63;2042854;29;20523;-73
2021/10/02 01:35:45;;;;;;;64.97;36.20;;;;;;;7.60;100.00;99592.28;2042914;29;20677;-74
2021/10/02 01:36:56;;;;;;;71.88;35.65;;;;;;;7.57;100.00;99582.19;2042502;29;20230;-73
2021/10/02 01:47:08;;;;;;;80.95;34.53;;;;;;;7.51;100.00;99585.88;2042550;29;20743;-73
2021/10/02 01:47:43;;;;;;;72.93;36.05;;;;;;;7.53;100.00;99579.25;2043038;29;20680;-73
2021/10/02 01:48:46;;;;;;;73.75;36.10;;;;;;;7.49;100.00;99577.38;2042289;29;20199;-73
2021/10/02 01:49:52;;;;;;;68.18;36.45;;;;;;;7.44;100.00;99583.47;2042570;29;20218;-73
2021/10/02 01:50:55;;;;;;;70.30;37.00;;;;;;;7.44;100.00;99598.59;2042818;29;20221;-73
2021/10/02 01:51:59;;;;;;;72.88;38.33;;;;;;;7.42;100.00;99598.06;2042827;29;20183;-73
2021/10/02 01:53:04;;;;;;;63.20;36.28;;;;;;;7.48;100.00;99591.72;2042960;29;20285;-73
2021/10/02 01:54:06;;;;;;;70.43;36.55;;;;;;;7.51;100.00;99586.69;2042748;29;20211;-74
2021/10/02 01:55:11;;;;;;;89.22;37.25;;;;;;;7.51;100.00;99588.53;2042560;29;20613;-74
2021/10/02 01:56:19;;;;;;;67.32;35.97;;;;;;;7.44;100.00;99590.66;2042272;29;20183;-73
2021/10/02 01:57:27;;;;;;;90.75;37.22;;;;;;;7.40;100.00;99586.94;2035207;29;20210;-73
2021/10/02 01:58:32;;;;;;;61.28;35.90;;;;;;;7.38;100.00;99584.50;2042361;29;20229;-73
2021/10/02 01:59:39;;;;;;;76.65;37.95;;;;;;;7.39;100.00;99585.34;2042855;29;20190;-73
2021/10/02 02:00:45;;;;;;;79.45;37.90;;;;;;;7.37;100.00;99591.69;2042906;29;20666;-73
2021/10/02 02:01:48;;;;;;;88.47;38.00;;;;;;;7.32;100.00;99583.72;2042097;29;20615;-74
2021/10/02 02:02:54;;;;;;;94.90;38.63;;;;;;;7.30;100.00;99577.09;2042267;29;20188;-73
2021/10/02 02:03:57;;;;;;;84.03;39.35;;;;;;;7.37;100.00;99578.41;2043007;29;20270;-73
2021/10/02 02:05:01;;;;;;;71.22;37.58;;;;;;;7.41;100.00;99575.25;2042327;29;20279;-73
2021/10/02 02:06:04;;;;;;;112.93;39.38;;;;;;;7.32;100.00;99578.41;2042202;29;20198;-73
2021/10/02 02:07:08;;;;;;;67.50;38.08;;;;;;;7.28;100.00;99577.31;2042570;29;20207;-73
2021/10/02 02:08:14;;;;;;;104.38;39.22;;;;;;;7.27;100.00;99577.59;2042760;29;20190;-73
2021/10/02 02:09:20;;;;;;;107.97;39.75;;;;;;;7.26;100.00;99579.44;2042068;29;20258;-73
2021/10/02 02:10:22;;;;;;;80.78;39.35;;;;;;;7.26;100.00;99590.06;2042245;29;20758;-73
2021/10/02 02:11:27;;;;;;;66.13;38.85;;;;;;;7.26;100.00;99576.78;2042851;29;20198;-73
2021/10/02 02:12:32;;;;;;;77.07;41.53;;;;;;;7.32;100.00;99581.06;2042916;29;20305;-74
2021/10/02 02:13:38;;;;;;;79.50;38.75;;;;;;;7.40;100.00;99578.97;2042859;29;20246;-73
2021/10/02 02:14:45;;;;;;;120.45;39.67;;;;;;;7.41;100.00;99567.28;2041981;29;20238;-73
2021/10/02 02:15:49;;;;;;;85.25;38.65;;;;;;;7.36;100.00;99570.72;2042445;29;20187;-73
2021/10/02 02:16:51;;;;;;;71.45;38.45;;;;;;;7.31;100.00;99566.19;2042010;29;20235;-73
2021/10/02 02:17:57;;;;;;;72.85;38.90;;;;;;;7.26;100.00;99574.13;2041906;29;20210;-73
2021/10/02 02:19:00;;;;;;;60.53;36.17;;;;;;;7.30;100.00;99572.56;2042105;29;20191;-73
2021/10/02 02:20:04;;;;;;;68.78;37.22;;;;;;;7.30;100.00;99561.97;2042141;29;20293;-73
2021/10/02 02:21:10;;;;;;;65.22;36.95;;;;;;;7.29;100.00;99570.16;2042624;29;20571;-73
2021/10/02 02:22:15;;;;;;;71.85;37.60;;;;;;;7.31;100.00;99571.50;2042937;29;20669;-73
2021/10/02 02:23:16;;;;;;;69.85;37.63;;;;;;;7.26;100.00;99574.13;2042230;29;20298;-74
2021/10/02 02:24:20;;;;;;;62.17;36.20;;;;;;;7.33;100.00;99566.72;2034264;29;20207;-73
2021/10/02 02:25:23;;;;;;;59.92;36.20;;;;;;;7.27;100.00;99565.13;2042326;29;20250;-73
2021/10/02 02:26:28;;;;;;;78.72;38.17;;;;;;;7.27;100.00;99562.47;2042132;29;20230;-73
2021/10/02 02:27:31;;;;;;;82.45;37.50;;;;;;;7.28;100.00;99561.41;2041739;29;20242;-73
2021/10/02 02:28:40;;;;;;;70.22;36.95;;;;;;;7.34;100.00;99560.38;2042598;29;20202;-73
2021/10/02 02:29:45;;;;;;;66.95;36.50;;;;;;;7.34;100.00;99557.72;2042860;29;20241;-73
2021/10/02 02:30:50;;;;;;;121.45;38.50;;;;;;;7.28;100.00;99555.28;2042740;29;20232;-73
2021/10/02 02:31:53;;;;;;;119.18;37.47;;;;;;;7.20;100.00;99561.91;2042499;29;20243;-73
2021/10/02 02:32:58;;;;;;;56.47;35.53;;;;;;;7.17;100.00;99559.00;2041056;29;20227;-73
2021/10/02 02:34:01;;;;;;;83.63;36.92;;;;;;;7.18;100.00;99553.41;2042009;29;20233;-73
2021/10/02 02:35:05;;;;;;;114.30;38.25;;;;;;;7.14;100.00;99552.34;2042714;29;20191;-73
2021/10/02 02:36:08;;;;;;;78.80;37.83;;;;;;;7.15;100.00;99545.97;2042772;29;20199;-73
2021/10/02 02:37:13;;;;;;;102.85;37.00;;;;;;;7.14;100.00;99543.59;2042531;29;20194;-73
2021/10/02 02:38:23;;;;;;;91.78;37.58;;;;;;;7.14;100.00;99551.56;2042094;29;20203;-73
2021/10/02 02:39:29;;;;;;;61.45;36.47;;;;;;;7.12;100.00;99543.84;2035488;29;20199;-73
2021/10/02 02:40:37;;;;;;;72.97;36.78;;;;;;;7.12;100.00;99549.13;2041990;29;20187;-73
2021/10/02 02:41:47;;;;;;;71.90;37.13;;;;;;;7.13;100.00;99550.75;2042523;29;20215;-73
2021/10/02 02:42:49;;;;;;;66.75;37.95;;;;;;;7.14;100.00;99554.22;2042715;29;20271;-73
2021/10/02 02:43:51;;;;;;;99.93;38.00;;;;;;;7.15;100.00;99553.16;2042498;29;20676;-73
2021/10/02 02:44:54;;;;;;;75.50;37.75;;;;;;;7.15;100.00;99548.63;2042611;29;20202;-73
2021/10/02 02:46:11;;;;;;;68.68;38.58;;;;;;;7.16;100.00;99550.22;2042490;29;20278;-73
2021/10/02 02:47:28;;;;;;;67.50;37.03;;;;;;;7.21;100.00;99555.56;2042745;29;20203;-73
2021/10/02 02:48:41;;;;;;;67.72;37.40;;;;;;;7.17;100.00;99554.47;2042012;29;20205;-73
2021/10/02 02:49:56;;;;;;;58.80;36.55;;;;;;;7.14;100.00;99556.88;2040662;29;20211;-73
2021/10/02 02:51:03;;;;;;;78.75;38.00;;;;;;;7.29;100.00;99549.72;2042464;29;20198;-73
2021/10/02 02:52:10;;;;;;;67.93;37.13;;;;;;;7.27;100.00;99543.88;2041830;29;20294;-73
2021/10/02 02:53:25;;;;;;;74.70;36.75;;;;;;;7.24;100.00;99547.06;2034679;29;20191;-73
2021/10/02 02:54:42;;;;;;;71.93;36.08;;;;;;;7.18;100.00;99557.94;2041885;29;20194;-73
2021/10/02 02:55:52;;;;;;;75.57;35.92;;;;;;;7.14;100.00;99555.00;2042347;29;20290;-73
2021/10/02 02:57:11;;;;;;;67.25;35.88;;;;;;;7.15;100.00;99545.97;2035335;29;20214;-73
2021/10/02 02:58:12;;;;;;;56.45;35.83;;;;;;;7.13;100.00;99542.81;2041997;29;20261;-74
2021/10/02 02:59:22;;;;;;;90.85;36.20;;;;;;;7.11;100.00;99536.94;2041797;29;20195;-73
2021/10/02 03:00:29;;;;;;;117.22;36.28;;;;;;;7.08;100.00;99540.91;2042566;29;20669;-73
2021/10/02 03:01:44;;;;;;;96.28;35.85;;;;;;;7.05;100.00;99549.41;2042410;29;20212;-73
2021/10/02 03:02:52;;;;;;;52.60;33.08;;;;;;;7.02;100.00;99549.91;2042637;29;20171;-73
2021/10/02 03:03:59;;;;;;;84.50;35.30;;;;;;;7.00;100.00;99552.03;2042017;29;20211;-73
2021/10/02 03:05:05;;;;;;;75.35;35.33;;;;;;;6.99;100.00;99539.03;2034866;29;20720;-73
2021/10/02 03:06:09;;;;;;;101.47;37.22;;;;;;;7.00;100.00;99545.94;2034686;29;20231;-74
2021/10/02 03:07:13;;;;;;;121.18;37.08;;;;;;;6.95;100.00;99548.56;2034104;29;20196;-73
2021/10/02 03:08:22;;;;;;;115.90;37.83;;;;;;;6.91;100.00;99542.97;2041997;29;20211;-74
2021/10/02 03:09:32;;;;;;;76.18;37.45;;;;;;;6.91;100.00;99552.78;2041836;29;20278;-73
2021/10/02 03:10:42;;;;;;;112.05;39.05;;;;;;;6.87;100.00;99544.56;2042243;29;20219;-73
2021/10/02 03:11:52;;;;;;;91.13;38.13;;;;;;;6.88;100.00;99532.09;2041623;29;20301;-73
2021/10/02 03:13:02;;;;;;;136.23;38.35;;;;;;;6.96;100.00;99532.41;2041671;29;20214;-73
2021/10/02 03:14:04;;;;;;;75.93;37.72;;;;;;;6.85;100.00;99530.75;2041877;29;20213;-73
2021/10/02 03:15:07;;;;;;;106.95;38.45;;;;;;;6.85;100.00;99545.88;2041709;29;20191;-73
2021/10/02 03:16:17;;;;;;;99.70;39.40;;;;;;;6.79;100.00;99542.41;2042235;29;20228;-73
2021/10/02 03:17:26;;;;;;;110.57;39.40;;;;;;;6.78;100.00;99540.81;2042331;29;20198;-73
2021/10/02 03:18:30;;;;;;;147.82;40.58;;;;;;;6.76;100.00;99534.97;2042138;29;20206;-73
2021/10/02 03:19:45;;;;;;;123.47;39.92;;;;;;;6.77;100.00;99532.03;2042249;29;20243;-73
2021/10/02 03:20:49;;;;;;;84.45;39.67;;;;;;;6.77;100.00;99537.34;2042275;29;20652;-73
2021/10/02 03:21:51;;;;;;;73.97;40.13;;;;;;;6.76;100.00;99534.97;2041918;29;20199;-73
2021/10/02 03:23:01;;;;;;;90.72;40.53;;;;;;;6.75;100.00;99538.66;2041768;29;20614;-73
2021/10/02 03:24:07;;;;;;;74.20;39.65;;;;;;;6.74;100.00;99543.19;2041845;29;20218;-73
2021/10/02 03:25:15;;;;;;;83.82;38.95;;;;;;;6.70;100.00;99534.16;2040885;29;20589;-73
2021/10/02 03:26:27;;;;;;;79.85;39.05;;;;;;;6.71;100.00;99534.94;2042137;29;20532;-73
2021/10/02 03:27:37;;;;;;;80.43;39.60;;;;;;;6.70;100.00;99536.81;2042376;29;20256;-73
2021/10/02 03:28:46;;;;;;;96.20;40.10;;;;;;;6.68;100.00;99538.09;2042191;29;20206;-73
2021/10/02 03:29:50;;;;;;;73.10;38.83;;;;;;;6.68;100.00;99538.09;2041940;29;20201;-73
2021/10/02 03:30:59;;;;;;;86.55;40.60;;;;;;;6.70;100.00;99536.00;2041868;29;20667;-73
2021/10/02 03:32:09;;;;;;;89.03;39.63;;;;;;;6.68;100.00;99536.25;2042030;29;20241;-73
2021/10/02 03:33:15;;;;;;;83.55;40.78;;;;;;;6.70;100.00;99539.47;2041981;29;20261;-73
2021/10/02 03:34:28;;;;;;;97.55;41.47;;;;;;;6.71;100.00;99535.75;2042376;29;20184;-73
2021/10/02 03:35:31;;;;;;;104.97;42.50;;;;;;;6.68;100.00;99536.25;2042099;29;20202;-73
2021/10/02 03:36:37;;;;;;;78.55;41.80;;;;;;;6.62;100.00;99524.03;2041457;29;20278;-73
2021/10/02 03:37:38;;;;;;;218.38;44.83;;;;;;;6.60;100.00;99527.97;2041830;29;20175;-73
2021/10/02 03:38:52;;;;;;;125.73;43.43;;;;;;;6.61;100.00;99532.25;2042140;29;20211;-73
2021/10/02 03:40:00;;;;;;;94.18;42.55;;;;;;;6.59;100.00;99535.16;2042361;29;20198;-73
2021/10/02 03:41:10;;;;;;;88.72;41.22;;;;;;;6.59;100.00;99531.69;2041453;29;20194;-74
2021/10/02 03:42:18;;;;;;;89.88;42.03;;;;;;;6.57;100.00;99531.97;2041671;29;20179;-74
2021/10/02 03:43:20;;;;;;;83.75;42.55;;;;;;;6.58;100.00;99532.75;2041710;29;20219;-74
2021/10/02 03:44:22;;;;;;;108.70;45.60;;;;;;;6.55;100.00;99534.06;2033649;29;20678;-74
2021/10/02 03:45:26;;;;;;;103.65;43.38;;;;;;;6.57;100.00;99536.47;2033629;29;20250;-73
2021/10/02 03:46:39;;;;;;;92.82;43.15;;;;;;;6.57;100.00;99526.66;2041406;29;20193;-73
2021/10/02 03:47:48;;;;;;;136.88;42.90;;;;;;;6.60;100.00;99535.94;2042061;29;20667;-73
2021/10/02 03:49:00;;;;;;;143.20;44.88;;;;;;;6.61;100.00;99537.56;2042008;29;20206;-73
2021/10/02 03:50:06;;;;;;;163.73;46.42;;;;;;;6.60;100.00;99536.72;2042277;29;20224;-74
2021/10/02 03:51:10;;;;;;;178.93;45.40;;;;;;;6.56;100.00;99530.38;2041757;29;20207;-74
2021/10/02 03:52:12;;;;;;;111.20;45.70;;;;;;;6.56;100.00;99529.56;2041392;29;20207;-73
2021/10/02 03:53:20;;;;;;;130.60;44.28;;;;;;;6.55;100.00;99534.06;2042008;29;20215;-73
2021/10/02 03:54:26;;;;;;;161.80;47.78;;;;;;;6.60;100.00;99536.72;2041266;29;20229;-73
2021/10/02 03:55:36;;;;;;;112.53;45.47;;;;;;;6.60;100.00;99525.34;2034179;29;20208;-74
2021/10/02 03:56:46;;;;;;;233.73;48.58;;;;;;;6.63;100.00;99530.94;2041628;29;20183;-73
2021/10/02 03:57:53;;;;;;;197.82;45.78;;;;;;;6.64;100.00;99527.22;2041878;29;20560;-74
2021/10/02 03:58:59;;;;;;;108.07;45.33;;;;;;;6.64;100.00;99526.44;2042246;29;20216;-73
2021/10/02 04:00:01;;;;;;;109.15;45.63;;;;;;;6.67;100.00;99526.69;2042027;29;20195;-73
2021/10/02 04:01:13;;;;;;;138.40;45.03;;;;;;;6.67;100.00;99515.28;2041993;29;20194;-73
2021/10/02 04:02:19;;;;;;;101.63;45.58;;;;;;;6.71;100.00;99521.69;2041957;29;20191;-73
2021/10/02 04:03:33;;;;;;;120.75;44.45;;;;;;;6.70;100.00;99531.50;2042110;29;20234;-74
2021/10/02 04:04:44;;;;;;;107.07;44.13;;;;;;;6.66;100.00;99535.72;2041224;29;20636;-73
2021/10/02 04:05:48;;;;;;;129.63;45.03;;;;;;;6.63;100.00;99528.28;2041725;29;20254;-73
2021/10/02 04:06:49;;;;;;;107.88;43.80;;;;;;;6.60;100.00;99526.13;2041986;29;20716;-73
2021/10/02 04:07:52;;;;;;;115.43;43.90;;;;;;;6.62;100.00;99524.03;2041286;29;20618;-73
2021/10/02 04:08:56;;;;;;;96.53;43.63;;;;;;;6.67;100.00;99528.56;2041063;29;20751;-73
2021/10/02 04:10:00;;;;;;;143.30;44.35;;;;;;;6.62;100.00;99529.34;2041104;29;20254;-73
2021/10/02 04:11:06;;;;;;;111.15;43.78;;;;;;;6.62;100.00;99529.34;2041319;29;20654;-73
2021/10/02 04:12:08;;;;;;;97.57;43.00;;;;;;;6.65;100.00;99528.03;2042084;29;20222;-73
2021/10/02 04:13:13;;;;;;;98.78;43.03;;;;;;;6.67;100.00;99526.69;2041004;29;20223;-73
2021/10/02 04:14:15;;;;;;;81.80;40.53;;;;;;;6.64;100.00;99531.72;2033859;29;20203;-73
2021/10/02 04:15:22;;;;;;;94.53;41.28;;;;;;;6.60;100.00;99526.13;2041377;29;20193;-73
2021/10/02 04:16:26;;;;;;;92.93;40.55;;;;;;;6.57;100.00;99521.34;2042186;29;20193;-73
2021/10/02 04:17:28;;;;;;;110.57;40.60;;;;;;;6.63;100.00;99524.84;2041861;29;20198;-73
2021/10/02 04:18:35;;;;;;;96.10;39.83;;;;;;;6.67;100.00;99516.09;2041852;29;20649;-73
2021/10/02 04:19:39;;;;;;;83.10;39.63;;;;;;;6.63;100.00;99524.84;2041525;29;20230;-73
2021/10/02 04:20:42;;;;;;;70.10;39.15;;;;;;;6.59;100.00;99534.34;2040587;29;20203;-73
2021/10/02 04:21:45;;;;;;;93.85;39.22;;;;;;;6.59;100.00;99529.84;2041357;29;20191;-74
2021/10/02 04:22:49;;;;;;;73.47;38.70;;;;;;;6.65;100.00;99520.88;2041247;29;20203;-73
2021/10/02 04:23:52;;;;;;;94.82;39.65;;;;;;;6.72;100.00;99533.91;2041371;29;20228;-73
2021/10/02 04:24:57;;;;;;;71.22;38.00;;;;;;;6.65;100.00;99520.06;2041883;29;20199;-74
2021/10/02 04:26:00;;;;;;;70.05;37.88;;;;;;;6.56;100.00;99530.38;2041525;29;20237;-73
2021/10/02 04:27:03;;;;;;;70.88;40.10;;;;;;;6.57;100.00;99533.81;2041272;29;20194;-73
2021/10/02 04:28:06;;;;;;;80.70;39.45;;;;;;;6.56;100.00;99527.72;2041883;29;20210;-73
2021/10/02 04:29:08;;;;;;;83.35;39.83;;;;;;;6.50;100.00;99529.53;2041899;29;20202;-74
2021/10/02 04:30:11;;;;;;;70.22;38.83;;;;;;;6.49;100.00;99529.78;2042173;29;20194;-73
2021/10/02 04:31:16;;;;;;;89.43;40.08;;;;;;;6.49;100.00;99535.09;2041802;29;20214;-73
2021/10/02 04:32:20;;;;;;;80.18;40.33;;;;;;;6.46;100.00;99533.75;2041535;29;20285;-73
2021/10/02 04:33:25;;;;;;;73.47;39.78;;;;;;;6.49;100.00;99529.78;2041900;29;20277;-73
2021/10/02 04:34:28;;;;;;;76.28;39.53;;;;;;;6.48;100.00;99531.66;2041825;29;20194;-74
2021/10/02 04:35:30;;;;;;;91.43;41.13;;;;;;;6.49;100.00;99527.16;2042044;29;20191;-73
2021/10/02 04:36:32;;;;;;;74.90;40.00;;;;;;;6.49;100.00;99525.28;2042042;29;20246;-73
2021/10/02 04:37:37;;;;;;;82.30;41.80;;;;;;;6.51;100.00;99525.84;2040266;29;20210;-73
2021/10/02 04:38:40;;;;;;;89.50;41.35;;;;;;;6.54;100.00;99531.69;2041288;29;20793;-73
2021/10/02 04:39:45;;;;;;;97.82;41.95;;;;;;;6.51;100.00;99528.50;2041443;29;20637;-73
2021/10/02 04:40:47;;;;;;;81.05;41.67;;;;;;;6.55;100.00;99526.13;2041771;29;20633;-73
2021/10/02 04:41:49;;;;;;;80.38;40.28;;;;;;;6.54;100.00;99526.38;2042825;29;20273;-73
2021/10/02 04:42:53;;;;;;;67.40;38.92;;;;;;;6.53;100.00;99520.28;2042287;29;20210;-73
2021/10/02 04:43:56;;;;;;;72.97;39.95;;;;;;;6.57;100.00;99536.47;2042944;29;20578;-73
2021/10/02 04:44:59;;;;;;;79.60;40.20;;;;;;;6.61;100.00;99525.09;2043353;29;20304;-73
2021/10/02 04:46:02;;;;;;;70.70;39.30;;;;;;;6.57;100.00;99531.97;2043152;29;20222;-74
2021/10/02 04:47:06;;;;;;;79.75;38.80;;;;;;;6.57;100.00;99531.16;2043321;29;20619;-73
2021/10/02 04:48:08;;;;;;;76.13;39.72;;;;;;;6.53;100.00;99522.94;2042608;29;20218;-73
2021/10/02 04:49:13;;;;;;;69.25;38.70;;;;;;;6.53;100.00;99532.75;2042766;29;20282;-73
2021/10/02 04:50:18;;;;;;;76.88;39.53;;;;;;;6.53;100.00;99528.25;2042693;29;20706;-73
2021/10/02 04:51:21;;;;;;;82.47;39.35;;;;;;;6.51;100.00;99530.31;2042746;29;20250;-73
2021/10/02 04:52:25;;;;;;;64.93;38.13;;;;;;;6.48;100.00;99531.66;2043309;29;20194;-73
2021/10/02 04:53:27;;;;;;;68.25;38.75;;;;;;;6.51;100.00;99535.63;2043017;29;20222;-73
2021/10/02 04:54:30;;;;;;;78.10;38.95;;;;;;;6.53;100.00;99528.25;2042974;29;20286;-73
2021/10/02 04:55:33;;;;;;;67.40;37.90;;;;;;;6.57;100.00;99531.97;2042569;29;20230;-73
2021/10/02 04:56:37;;;;;;;69.00;38.10;;;;;;;6.52;100.00;99529.31;2043140;29;20210;-73
2021/10/02 04:57:39;;;;;;;72.05;37.38;;;;;;;6.49;100.00;99530.59;2043292;29;20222;-74
2021/10/02 04:58:43;;;;;;;62.77;37.67;;;;;;;6.48;100.00;99528.19;2043361;29;20661;-73
2021/10/02 04:59:46;;;;;;;83.60;37.50;;;;;;;6.52;100.00;99531.94;2043182;29;20245;-73
2021/10/02 05:00:50;;;;;;;66.93;36.60;;;;;;;6.51;100.00;99532.97;2042669;29;20242;-73
2021/10/02 05:01:53;;;;;;;64.22;37.42;;;;;;;6.50;100.00;99531.38;2042505;29;20689;-73
2021/10/02 05:02:58;;;;;;;61.13;36.05;;;;;;;6.48;100.00;99534.31;2035221;29;20762;-73
2021/10/02 05:04:01;;;;;;;71.60;36.97;;;;;;;6.50;100.00;99526.09;2042236;29;20211;-73
2021/10/02 05:05:05;;;;;;;70.30;37.60;;;;;;;6.50;100.00;99528.75;2042601;29;20202;-73
2021/10/02 05:06:10;;;;;;;75.47;37.08;;;;;;;6.49;100.00;99535.09;2042756;29;20175;-74
2021/10/02 05:07:14;;;;;;;56.95;36.45;;;;;;;6.49;100.00;99529.78;2042506;29;20678;-73
2021/10/02 05:08:17;;;;;;;74.85;37.22;;;;;;;6.52;100.00;99529.31;2035404;29;20211;-73
2021/10/02 05:09:22;;;;;;;79.53;36.55;;;;;;;6.55;100.00;99530.63;2042036;29;20752;-73
2021/10/02 05:10:23;;;;;;;68.93;36.38;;;;;;;6.59;100.00;99521.88;2043146;29;20671;-73
2021/10/02 05:11:28;;;;;;;77.93;36.70;;;;;;;6.53;100.00;99528.25;2043369;29;20194;-74
2021/10/02 05:12:31;;;;;;;69.82;37.08;;;;;;;6.49;100.00;99524.50;2042607;29;20206;-73
2021/10/02 05:13:35;;;;;;;75.53;37.58;;;;;;;6.51;100.00;99533.81;2042612;29;20223;-73
2021/10/02 05:14:40;;;;;;;74.35;36.63;;;;;;;6.50;100.00;99534.84;2042487;29;20250;-73
2021/10/02 05:15:45;;;;;;;63.75;36.65;;;;;;;6.49;100.00;99530.59;2043151;29;20706;-73
2021/10/02 05:16:48;;;;;;;62.92;35.90;;;;;;;6.49;100.00;99529.78;2043144;29;20191;-73
2021/10/02 05:17:51;;;;;;;61.42;36.13;;;;;;;6.57;100.00;99521.34;2043207;29;20210;-73
2021/10/02 05:18:54;;;;;;;69.80;36.65;;;;;;;6.60;100.00;99530.63;2043397;29;20254;-73
2021/10/02 05:20:00;;;;;;;61.92;35.88;;;;;;;6.56;100.00;99535.66;2043163;29;20194;-73
2021/10/02 05:21:02;;;;;;;59.78;34.05;;;;;;;6.59;100.00;99529.84;2043142;29;20234;-73
2021/10/02 05:22:08;;;;;;;59.55;34.97;;;;;;;6.57;100.00;99523.22;2043079;29;20199;-73
2021/10/02 05:23:10;;;;;;;61.28;35.30;;;;;;;6.58;100.00;99530.09;2043176;29;20223;-73
2021/10/02 05:24:13;;;;;;;58.47;34.33;;;;;;;6.60;100.00;99528.78;2042429;29;20191;-74
2021/10/02 05:25:14;;;;;;;68.90;34.88;;;;;;;6.61;100.00;99533.06;2042805;29;20308;-73
2021/10/02 05:26:17;;;;;;;66.65;35.38;;;;;;;6.61;100.00;99538.34;2043130;29;20191;-73
2021/10/02 05:27:18;;;;;;;52.13;34.92;;;;;;;6.59;100.00;99529.03;2042418;29;20202;-73
2021/10/02 05:28:22;;;;;;;61.80;34.47;;;;;;;6.58;100.00;99532.75;2042495;29;20226;-73
2021/10/02 05:29:25;;;;;;;60.75;34.83;;;;;;;6.57;100.00;99525.84;2043039;29;20249;-73
2021/10/02 05:30:28;;;;;;;58.83;35.88;;;;;;;6.57;100.00;99529.31;2042981;29;20211;-73
2021/10/02 05:31:31;;;;;;;54.13;34.35;;;;;;;6.58;100.00;99533.56;2042575;29;20214;-73
2021/10/02 05:32:34;;;;;;;62.20;37.30;;;;;;;6.54;100.00;99521.88;2042246;29;20203;-73
2021/10/02 05:33:37;;;;;;;57.70;35.53;;;;;;;6.58;100.00;99530.09;2042624;29;20211;-73
2021/10/02 05:34:40;;;;;;;68.30;36.80;;;;;;;6.58;100.00;99528.25;2042731;29;20211;-74
2021/10/02 05:35:45;;;;;;;64.22;36.58;;;;;;;6.60;100.00;99533.28;2042884;29;20229;-74
2021/10/02 05:36:46;;;;;;;74.70;35.60;;;;;;;6.56;100.00;99535.66;2043027;29;20199;-73
2021/10/02 05:37:51;;;;;;;65.40;36.15;;;;;;;6.58;100.00;99533.56;2042932;29;20223;-73
2021/10/02 05:38:54;;;;;;;77.22;37.90;;;;;;;6.62;100.00;99531.19;2042890;29;20689;-74
2021/10/02 05:39:55;;;;;;;68.00;37.25;;;;;;;6.58;100.00;99527.44;2042591;29;20238;-73
2021/10/02 05:40:59;;;;;;;55.95;37.83;;;;;;;6.59;100.00;99539.66;2034517;29;20212;-73
2021/10/02 05:42:02;;;;;;;60.72;36.55;;;;;;;6.58;100.00;99538.84;2042188;29;20231;-73
2021/10/02 05:43:06;;;;;;;59.67;36.92;;;;;;;6.63;100.00;99533.59;2042280;29;20261;-73
2021/10/02 05:44:10;;;;;;;53.65;34.70;;;;;;;6.67;100.00;99532.00;2042928;29;20285;-73
2021/10/02 05:45:13;;;;;;;58.90;34.97;;;;;;;6.65;100.00;99533.31;2042180;29;20294;-73
2021/10/02 05:46:21;;;;;;;61.65;34.58;;;;;;;6.73;100.00;99533.63;2034477;29;20254;-73
2021/10/02 05:47:24;;;;;;;52.30;35.58;;;;;;;6.70;100.00;99533.38;2035282;29;20592;-73
2021/10/02 05:48:28;;;;;;;55.78;35.10;;;;;;;6.66;100.00;99529.63;2041647;29;20211;-73
2021/10/02 05:49:31;;;;;;;56.78;34.58;;;;;;;6.65;100.00;99526.16;2042122;29;20305;-73